createdAt,value
2019-03-13T06:14:07.990Z,11.22
2019-03-13T06:15:07.934Z,11.12
2019-03-13T06:16:07.919Z,11.12
2019-03-13T06:17:07.894Z,11.11
2019-03-13T06:18:09.834Z,11.22
2019-03-13T06:19:07.842Z,11.11
2019-03-13T06:20:10.428Z,11.11
2019-03-13T08:59:47.475Z,17.46
2019-03-13T09:00:47.404Z,18.66
2019-03-13T09:01:47.389Z,17.37
2019-03-13T09:02:47.382Z,17.57
2019-03-13T09:03:47.373Z,18.26
2019-03-13T09:04:47.364Z,18.13
2019-03-13T09:05:47.386Z,16.49
2019-03-13T09:06:47.344Z,16.55
2019-03-13T09:07:47.330Z,16.16
2019-03-13T09:08:47.314Z,15.64
2019-03-13T09:09:47.301Z,15.14
2019-03-13T09:10:47.291Z,15.62
2019-03-13T09:11:47.343Z,15.75
2019-03-13T09:12:47.272Z,17.86
2019-03-13T09:13:47.264Z,16.58
2019-03-13T09:14:47.251Z,17.00
2019-03-13T09:15:47.240Z,17.41
2019-03-13T09:16:47.270Z,17.74
2019-03-13T09:17:47.215Z,17.35
2019-03-13T09:18:47.213Z,18.66
2019-03-13T09:19:47.200Z,17.07
2019-03-13T09:20:47.190Z,17.26
2019-03-13T09:21:47.180Z,17.26
2019-03-13T09:22:47.173Z,17.47
2019-03-13T09:23:47.158Z,16.57
2019-03-13T09:24:47.138Z,16.77
2019-03-13T09:25:47.144Z,16.57
2019-03-13T09:26:47.122Z,16.47
2019-03-13T09:27:47.157Z,16.87
2019-03-13T09:28:47.102Z,16.78
2019-03-13T09:29:54.078Z,16.78
2019-03-13T09:30:47.079Z,16.98
2019-03-13T09:31:47.083Z,16.48
2019-03-13T09:32:47.053Z,16.48
2019-03-13T09:33:47.049Z,16.48
2019-03-13T09:34:47.030Z,16.68
2019-03-13T09:35:47.035Z,16.78
2019-03-13T09:36:47.009Z,16.98
2019-03-13T09:37:46.997Z,16.68
2019-03-13T09:38:47.024Z,16.39
2019-03-13T09:39:46.976Z,16.99
2019-03-13T09:40:46.966Z,16.89
2019-03-13T09:41:46.961Z,17.19
2019-03-13T09:42:46.948Z,16.99
2019-03-13T09:43:46.940Z,16.89
2019-03-13T09:44:46.932Z,16.59
2019-03-13T09:45:46.913Z,16.09
2019-03-13T09:46:46.900Z,16.79
2019-03-13T09:47:46.893Z,16.99
2019-03-13T09:48:46.883Z,17.09
2019-03-13T09:49:46.907Z,16.09
2019-03-13T09:50:46.858Z,16.39
2019-03-13T09:51:46.851Z,16.79
2019-03-13T09:52:46.839Z,16.49
2019-03-13T09:53:46.828Z,16.50
2019-03-13T09:54:46.818Z,15.80
2019-03-13T09:55:46.821Z,16.89
2019-03-13T09:56:46.803Z,16.80
2019-03-13T09:57:46.787Z,16.30
2019-03-13T09:58:46.769Z,16.39
2019-03-13T09:59:46.768Z,16.39
2019-03-13T10:00:58.441Z,16.39
2019-03-13T10:01:46.741Z,16.20
2019-03-13T10:02:46.731Z,16.39
2019-03-13T10:03:46.715Z,16.00
2019-03-13T10:04:46.704Z,16.50
2019-03-13T10:05:46.698Z,16.20
2019-03-13T10:06:46.919Z,16.80
2019-03-13T10:07:46.686Z,16.20
2019-03-13T10:08:46.659Z,16.20
2019-03-13T10:09:46.649Z,16.69
2019-03-13T10:10:46.639Z,16.20
2019-03-13T10:11:46.634Z,16.20
2019-03-13T10:12:46.684Z,16.09
2019-03-13T10:13:46.604Z,16.69
2019-03-13T10:14:46.603Z,16.50
2019-03-13T10:15:46.588Z,16.00
2019-03-13T10:16:46.571Z,16.60
2019-03-13T10:17:46.561Z,16.20
2019-03-13T10:18:46.559Z,16.00
2019-03-13T10:19:46.539Z,16.30
2019-03-13T10:20:46.530Z,16.50
2019-03-13T10:21:49.349Z,16.30
2019-03-13T10:22:46.524Z,16.30
2019-03-13T10:23:46.501Z,15.89
2019-03-13T10:24:46.487Z,16.50
2019-03-13T10:25:49.043Z,16.30
2019-03-13T10:26:46.462Z,16.30
2019-03-13T10:27:46.457Z,16.50
2019-03-13T10:28:46.488Z,16.30
2019-03-13T10:29:46.438Z,16.30
2019-03-13T10:30:46.423Z,16.30
2019-03-13T10:31:56.326Z,16.71
2019-03-13T10:32:46.397Z,15.70
2019-03-13T10:33:46.390Z,16.20
2019-03-13T10:34:46.418Z,16.41
2019-03-13T10:35:46.371Z,16.10
2019-03-13T10:36:46.354Z,16.50
2019-03-13T10:37:46.364Z,16.41
2019-03-13T10:38:46.335Z,16.00
2019-03-13T10:39:46.322Z,16.20
2019-03-13T10:40:46.598Z,16.50
2019-03-13T10:41:46.309Z,17.10
2019-03-13T10:42:46.302Z,16.20
2019-03-13T10:43:46.280Z,16.50
2019-03-13T10:44:46.272Z,16.71
2019-03-13T10:45:46.261Z,16.30
2019-03-13T10:46:46.289Z,16.10
2019-03-13T10:47:46.348Z,16.30
2019-03-13T10:48:46.227Z,16.41
2019-03-13T10:49:46.216Z,16.41
2019-03-13T10:50:46.202Z,16.71
2019-03-13T10:51:46.195Z,16.60
2019-03-13T10:52:46.192Z,16.00
2019-03-13T10:53:46.181Z,16.50
2019-03-13T10:54:46.165Z,16.20
2019-03-13T10:55:46.158Z,16.20
2019-03-13T10:56:46.164Z,16.20
2019-03-13T10:57:46.134Z,16.50
2019-03-13T10:58:46.118Z,16.20
2019-03-13T10:59:46.156Z,15.80
2019-03-13T11:00:46.105Z,16.41
2019-03-13T11:01:46.087Z,16.41
2019-03-13T11:02:56.512Z,16.00
2019-03-13T11:03:46.070Z,16.50
2019-03-13T11:04:46.055Z,15.91
2019-03-13T11:05:46.046Z,16.71
2019-03-13T11:06:54.857Z,17.11
2019-03-13T11:07:47.024Z,16.91
2019-03-13T11:08:46.056Z,16.20
2019-03-13T11:09:46.004Z,16.80
2019-03-13T11:10:45.991Z,17.10
2019-03-13T11:11:45.979Z,16.80
2019-03-13T11:12:48.450Z,17.80
2019-03-13T11:13:45.953Z,17.11
2019-03-13T11:14:45.988Z,18.10
2019-03-13T11:15:45.935Z,18.01
2019-03-13T11:16:45.922Z,18.30
2019-03-13T11:17:45.915Z,19.40
2019-03-13T11:18:52.891Z,18.79
2019-03-13T11:19:45.890Z,18.90
2019-03-13T11:20:53.058Z,19.29
2019-03-13T11:21:53.369Z,20.29
2019-03-13T11:22:45.864Z,19.20
2019-03-13T11:23:45.848Z,20.39
2019-03-13T11:24:45.836Z,19.79
2019-03-13T11:25:45.839Z,20.09
2019-03-13T11:26:45.827Z,20.29
2019-03-13T11:27:45.805Z,19.59
2019-03-13T11:28:45.794Z,19.89
2019-03-13T11:29:45.786Z,20.39
2019-03-13T11:30:45.778Z,19.68
2019-03-13T11:31:46.113Z,19.89
2019-03-13T11:32:45.752Z,19.38
2019-03-13T11:33:45.745Z,19.89
2019-03-13T11:34:45.735Z,19.38
2019-03-13T11:35:45.724Z,19.38
2019-03-13T11:36:45.713Z,19.38
2019-03-13T11:37:45.735Z,19.57
2019-03-13T11:38:45.688Z,19.57
2019-03-13T11:39:45.673Z,19.68
2019-03-13T11:40:45.661Z,18.98
2019-03-13T11:41:45.654Z,19.38
2019-03-13T11:42:45.641Z,19.88
2019-03-13T11:43:45.646Z,19.88
2019-03-13T11:44:45.619Z,19.18
2019-03-13T11:45:45.627Z,19.27
2019-03-13T11:46:45.606Z,18.28
2019-03-13T11:47:45.593Z,18.18
2019-03-13T11:48:45.612Z,19.18
2019-03-13T11:49:45.570Z,18.58
2019-03-13T11:50:45.559Z,18.88
2019-03-13T11:51:45.569Z,18.88
2019-03-13T11:52:58.119Z,17.98
2019-03-13T11:53:47.093Z,18.88
2019-03-13T11:54:45.519Z,18.28
2019-03-13T11:55:45.502Z,18.87
2019-03-13T11:56:45.498Z,17.98
2019-03-13T11:57:45.484Z,18.08
2019-03-13T11:58:45.466Z,18.68
2019-03-13T11:59:45.480Z,18.08
2019-03-13T12:00:45.445Z,17.98
2019-03-13T12:01:46.330Z,18.48
2019-03-13T12:02:45.426Z,18.38
2019-03-13T12:03:45.412Z,18.27
2019-03-13T12:04:45.406Z,18.58
2019-03-13T12:05:45.414Z,17.97
